Time;durP1;ratioP1;P1;durP2;ratioP2;P2;SDS_P1;SDS_P2;PMS_P1;PMS_P2;Temp;Humidity;BMP_temperature;BMP_pressure;BME280_temperature;BME280_humidity;BME280_pressure;Samples;Min_cycle;Max_cycle;Signal;HPM_P1;HPM_P2
2023/02/27 00:00:30;;;;;;;;;;;1.40;76.20;;;;;;5047712;28;20049;-74
2023/02/27 00:02:57;;;;;;;6.15;1.90;;;1.30;76.20;;;;;;5048783;28;20415;-76
2023/02/27 00:05:23;;;;;;;6.00;2.00;;;1.20;74.50;;;;;;5047301;28;20653;-75
2023/02/27 00:07:49;;;;;;;3.47;1.13;;;1.40;74.90;;;;;;5030831;28;20023;-75
2023/02/27 00:10:15;;;;;;;4.63;1.58;;;1.30;74.40;;;;;;5048901;28;20516;-76
2023/02/27 00:12:41;;;;;;;;;;;1.30;74.10;;;;;;5048717;28;20025;-75
2023/02/27 00:15:09;;;;;;;3.92;1.35;;;1.20;75.00;;;;;;5030718;28;19908;-75
2023/02/27 00:17:35;;;;;;;3.67;1.88;;;1.20;74.60;;;;;;5030703;28;20033;-74
2023/02/27 00:20:03;;;;;;;4.53;1.40;;;1.30;74.40;;;;;;5030711;28;20025;-75
2023/02/27 00:22:29;;;;;;;4.50;1.10;;;1.40;72.30;;;;;;5029987;28;20124;-73
2023/02/27 00:24:55;;;;;;;;;;;1.50;71.30;;;;;;5048976;28;20108;-77
2023/02/27 00:27:20;;;;;;;3.55;1.27;;;1.50;70.50;;;;;;5030504;28;19916;-72
2023/02/27 00:29:46;;;;;;;;;;;1.50;71.10;;;;;;5047572;28;20466;-75
2023/02/27 00:32:12;;;;;;;4.38;1.52;;;1.40;70.40;;;;;;5047314;28;19908;-74
2023/02/27 00:34:37;;;;;;;;;;;1.50;70.10;;;;;;5030853;28;20025;-75
2023/02/27 00:37:03;;;;;;;4.32;1.45;;;1.50;71.80;;;;;;5046917;28;20369;-74
2023/02/27 00:39:29;;;;;;;;;;;1.30;72.50;;;;;;5047409;28;20029;-77
2023/02/27 00:41:54;;;;;;;3.88;1.52;;;1.20;72.30;;;;;;5048419;28;19909;-75
2023/02/27 00:44:20;;;;;;;;;;;1.20;72.50;;;;;;5048728;28;20029;-76
2023/02/27 00:46:45;;;;;;;4.53;1.42;;;1.10;73.00;;;;;;5048027;28;20396;-77
2023/02/27 00:49:11;;;;;;;;;;;1.10;72.60;;;;;;5048348;28;20025;-76
2023/02/27 00:51:37;;;;;;;6.20;2.10;;;1.10;73.00;;;;;;5030411;28;19908;-75
2023/02/27 00:54:02;;;;;;;;;;;1.10;72.80;;;;;;5047336;28;20508;-74
2023/02/27 00:56:28;;;;;;;6.78;1.30;;;1.10;71.90;;;;;;5030052;28;20384;-76
2023/02/27 00:58:54;;;;;;;;;;;1.10;71.80;;;;;;5047187;28;20059;-75
2023/02/27 01:01:20;;;;;;;4.72;1.52;;;1.10;71.40;;;;;;5048185;28;19951;-75
2023/02/27 01:03:45;;;;;;;;;;;1.00;71.80;;;;;;5048617;28;20033;-76
2023/02/27 01:06:11;;;;;;;6.75;1.35;;;1.00;72.50;;;;;;5046884;28;19915;-74
2023/02/27 01:08:37;;;;;;;;;;;1.00;72.10;;;;;;5048454;28;20036;-75
2023/02/27 01:11:02;;;;;;;9.90;1.05;;;1.10;72.10;;;;;;5048231;28;20424;-75
2023/02/27 01:13:28;;;;;;;;;;;1.00;72.40;;;;;;5048590;28;20509;-77
2023/02/27 01:15:54;;;;;;;3.55;0.88;;;1.00;73.20;;;;;;5029923;28;19958;-74
2023/02/27 01:18:19;;;;;;;;;;;0.90;72.80;;;;;;5047238;28;20033;-75
2023/02/27 01:20:45;;;;;;;2.92;0.90;;;0.90;73.00;;;;;;5029970;28;19989;-75
2023/02/27 01:23:10;;;;;;;;;;;0.90;73.30;;;;;;5048122;28;20116;-75
2023/02/27 01:25:36;;;;;;;3.28;1.17;;;0.90;73.40;;;;;;5047846;28;19913;-75
2023/02/27 01:28:01;;;;;;;;;;;0.80;73.20;;;;;;5046324;28;20025;-76
2023/02/27 01:30:27;;;;;;;4.70;0.90;;;0.80;73.50;;;;;;5047844;28;19927;-75
2023/02/27 01:32:53;;;;;;;;;;;0.80;73.90;;;;;;5046821;28;20066;-75
2023/02/27 01:35:18;;;;;;;3.50;1.10;;;0.90;73.20;;;;;;5049504;28;19912;-75
2023/02/27 01:37:44;;;;;;;;;;;0.90;73.20;;;;;;5051906;28;20099;-76
2023/02/27 01:40:10;;;;;;;3.03;0.95;;;0.90;72.90;;;;;;5033791;28;19908;-75
2023/02/27 01:42:36;;;;;;;4.07;1.15;;;0.90;72.60;;;;;;5051251;28;20041;-76
2023/02/27 01:45:05;;;;;;;;;;;1.00;72.60;;;;;;5050508;28;20083;-75
2023/02/27 01:47:31;;;;;;;2.47;0.70;;;1.00;72.60;;;;;;5051414;28;19908;-76
2023/02/27 01:49:58;;;;;;;3.72;1.38;;;0.90;72.90;;;;;;5051447;28;20096;-75
2023/02/27 01:52:23;;;;;;;4.72;1.10;;;0.80;73.40;;;;;;5033447;28;20033;-74
2023/02/27 01:54:49;;;;;;;;;;;0.90;73.20;;;;;;5050198;28;20781;-75
2023/02/27 01:57:15;;;;;;;3.05;0.95;;;0.80;73.80;;;;;;5051324;28;19950;-74
2023/02/27 01:59:41;;;;;;;;;;;0.90;73.20;;;;;;5050392;28;20075;-75
2023/02/27 02:02:13;;;;;;;4.78;1.02;;;1.00;73.10;;;;;;5051125;28;19905;-76
2023/02/27 02:04:40;;;;;;;3.50;1.50;;;0.90;73.00;;;;;;5033004;28;20521;-76
2023/02/27 02:07:10;;;;;;;3.72;1.20;;;1.00;73.30;;;;;;5033420;28;20124;-75
2023/02/27 02:09:40;;;;;;;4.53;1.05;;;1.00;73.30;;;;;;5051034;28;20055;-76
2023/02/27 02:12:07;;;;;;;4.28;1.45;;;1.00;72.90;;;;;;5050956;28;20071;-75
2023/02/27 02:14:33;;;;;;;4.85;1.30;;;1.10;72.60;;;;;;5032919;28;20033;-75
2023/02/27 02:17:10;;;;;;;;;;;1.00;72.70;;;;;;5050068;28;20370;-76
2023/02/27 02:19:50;;;;;;;3.73;1.33;;;1.00;72.70;;;;;;5032761;28;19908;-75
2023/02/27 02:22:16;;;;;;;4.60;1.25;;;0.90;72.70;;;;;;5051141;28;20071;-75
2023/02/27 02:25:00;;;;;;;;;;;1.00;72.30;;;;;;5033070;28;20045;-75
2023/02/27 02:27:26;;;;;;;3.95;1.02;;;1.00;72.50;;;;;;5032658;28;19909;-75
2023/02/27 02:29:54;;;;;;;;;;;1.00;72.50;;;;;;5033188;28;20029;-76
2023/02/27 02:32:59;;;;;;;2.97;0.70;;;1.10;72.30;;;;;;5032627;28;19974;-75
2023/02/27 02:35:48;;;;;;;2.25;0.68;;;1.20;71.50;;;;;;5050382;28;20126;-75
2023/02/27 02:38:32;;;;;;;6.05;1.02;;;1.20;71.40;;;;;;4984324;28;20053;-75
2023/02/27 02:41:05;;;;;;;2.78;1.05;;;1.30;71.00;;;;;;5030831;28;20057;-76
2023/02/27 02:43:40;;;;;;;3.40;0.95;;;1.30;70.80;;;;;;5012775;28;20024;-76
2023/02/27 02:46:29;;;;;;;4.95;1.23;;;1.30;70.70;;;;;;5029756;28;20497;-74
2023/02/27 02:49:19;;;;;;;3.60;0.98;;;1.30;70.60;;;;;;4967727;28;20029;-75
2023/02/27 02:51:50;;;;;;;2.38;0.85;;;1.30;70.10;;;;;;5013079;28;20596;-75
2023/02/27 02:54:49;;;;;;;4.50;1.40;;;1.40;70.10;;;;;;5030182;28;20036;-73
2023/02/27 02:57:38;;;;;;;3.80;1.40;;;1.30;70.30;;;;;;5030249;28;20040;-74
2023/02/27 03:00:14;;;;;;;3.08;1.23;;;1.30;70.00;;;;;;5030308;28;20507;-73
2023/02/27 03:02:55;;;;;;;4.20;1.27;;;1.30;69.80;;;;;;5011744;28;20117;-73
2023/02/27 03:05:36;;;;;;;1.95;0.80;;;1.30;69.80;;;;;;5029965;28;20057;-74
2023/02/27 03:08:09;;;;;;;4.22;1.20;;;1.30;70.10;;;;;;5012348;28;20044;-74
2023/02/27 03:10:39;;;;;;;6.10;1.23;;;1.40;69.70;;;;;;5029832;28;20562;-76
2023/02/27 03:13:11;;;;;;;2.58;0.90;;;1.40;69.30;;;;;;5012027;28;20052;-74
2023/02/27 03:15:46;;;;;;;4.03;1.08;;;1.40;69.20;;;;;;5012101;28;20086;-75
2023/02/27 03:18:24;;;;;;;2.33;0.70;;;1.40;69.90;;;;;;5012284;28;20844;-73
2023/02/27 03:20:58;;;;;;;3.08;1.10;;;1.40;69.20;;;;;;5011720;28;20026;-74
2023/02/27 03:23:31;;;;;;;4.68;0.80;;;1.40;69.20;;;;;;5011807;28;20538;-74
2023/02/27 03:25:58;;;;;;;4.03;1.15;;;1.40;69.30;;;;;;5011784;28;20038;-74
2023/02/27 03:28:31;;;;;;;3.30;1.20;;;1.40;69.30;;;;;;5029672;28;20104;-74
2023/02/27 03:31:07;;;;;;;7.00;1.02;;;1.40;68.90;;;;;;5029291;28;20509;-74
2023/02/27 03:33:44;;;;;;;;;;;1.40;68.80;;;;;;5012283;28;20483;-75
2023/02/27 03:36:28;;;;;;;3.35;1.45;;;1.30;69.20;;;;;;5028377;28;20147;-74
2023/02/27 03:39:01;;;;;;;4.18;0.85;;;1.30;69.20;;;;;;5011581;28;20425;-75
2023/02/27 03:41:46;;;;;;;4.15;0.90;;;1.40;69.00;;;;;;5029471;28;20026;-75
2023/02/27 03:44:22;;;;;;;4.50;1.25;;;1.40;68.40;;;;;;5011605;28;20029;-75
2023/02/27 03:46:48;;;;;;;4.95;1.10;;;1.40;68.90;;;;;;5029214;28;20029;-74
2023/02/27 03:49:13;;;;;;;;;;;1.40;69.20;;;;;;5029809;28;20484;-75
2023/02/27 03:51:39;;;;;;;3.85;0.90;;;1.30;69.20;;;;;;5011265;28;19909;-75
2023/02/27 03:54:11;;;;;;;;;;;1.40;69.20;;;;;;5029661;28;20510;-75
2023/02/27 03:57:02;;;;;;;3.38;1.10;;;1.40;68.60;;;;;;5028745;28;19999;-75
2023/02/27 03:59:29;;;;;;;4.20;1.15;;;1.40;68.40;;;;;;5011112;28;20056;-76
2023/02/27 04:01:56;;;;;;;3.20;1.15;;;1.30;69.00;;;;;;5028721;28;20064;-75
2023/02/27 04:04:23;;;;;;;6.55;1.45;;;1.30;69.60;;;;;;5028637;28;20043;-74
2023/02/27 04:07:34;;;;;;;2.47;0.80;;;1.20;69.50;;;;;;5011216;28;20029;-75
2023/02/27 04:10:05;;;;;;;2.38;0.90;;;1.30;69.60;;;;;;4986211;28;20030;-74
2023/02/27 04:13:02;;;;;;;3.75;1.13;;;1.30;69.00;;;;;;5028749;28;20032;-76
2023/02/27 04:16:04;;;;;;;4.15;0.95;;;1.20;69.40;;;;;;5010934;28;20048;-74
2023/02/27 04:18:53;;;;;;;2.85;0.85;;;1.30;68.90;;;;;;5010870;28;20124;-74
2023/02/27 04:21:31;;;;;;;5.90;1.00;;;1.30;68.50;;;;;;5010999;28;20056;-74
2023/02/27 04:24:28;;;;;;;4.13;0.90;;;1.20;68.50;;;;;;5028572;28;20483;-75
2023/02/27 04:27:06;;;;;;;3.38;0.73;;;1.20;69.30;;;;;;4965304;28;20080;-74
2023/02/27 04:29:40;;;;;;;3.75;0.93;;;1.30;68.70;;;;;;5028766;28;20028;-74
2023/02/27 04:32:18;;;;;;;4.00;1.25;;;1.30;69.00;;;;;;5010991;28;20041;-74
2023/02/27 04:34:52;;;;;;;5.13;1.05;;;1.20;69.10;;;;;;5028468;28;20029;-74
2023/02/27 04:37:28;;;;;;;4.03;0.80;;;1.20;69.00;;;;;;5031916;28;20088;-73
2023/02/27 04:40:05;;;;;;;4.68;1.05;;;1.20;69.70;;;;;;5030552;28;20057;-75
2023/02/27 04:42:34;;;;;;;1.73;0.77;;;1.20;69.50;;;;;;5030186;28;20093;-74
2023/02/27 04:45:05;;;;;;;8.73;1.15;;;1.20;68.90;;;;;;5030330;28;20040;-77
2023/02/27 04:47:42;;;;;;;4.20;1.00;;;1.20;68.70;;;;;;5030379;28;20025;-77
2023/02/27 04:50:14;;;;;;;;;;;1.20;68.90;;;;;;5048811;28;20094;-74
2023/02/27 04:52:44;;;;;;;5.32;1.02;;;1.20;69.80;;;;;;5048164;28;19936;-74
2023/02/27 04:55:18;;;;;;;3.15;1.15;;;1.20;68.90;;;;;;5030270;28;20562;-74
2023/02/27 04:57:53;;;;;;;2.95;1.17;;;1.30;68.30;;;;;;5030247;28;20124;-74
2023/02/27 05:00:22;;;;;;;3.45;1.10;;;1.30;68.10;;;;;;5030430;28;20033;-75
2023/02/27 05:02:58;;;;;;;2.22;0.63;;;1.30;67.90;;;;;;5047918;28;20021;-74
2023/02/27 05:05:27;;;;;;;5.93;0.60;;;1.20;68.00;;;;;;5030117;28;20045;-75
2023/02/27 05:08:07;;;;;;;2.08;0.63;;;1.30;67.60;;;;;;5048182;28;20478;-75
2023/02/27 05:10:42;;;;;;;4.50;0.70;;;1.20;67.90;;;;;;5034038;28;20025;-75
2023/02/27 05:13:13;;;;;;;4.28;0.80;;;1.20;67.60;;;;;;5034176;28;20082;-75
2023/02/27 05:15:51;;;;;;;2.38;0.60;;;1.20;67.90;;;;;;5034089;28;20553;-74
2023/02/27 05:18:19;;;;;;;5.30;1.05;;;1.30;67.60;;;;;;5052017;28;20036;-74
2023/02/27 05:21:08;;;;;;;2.97;0.57;;;1.20;67.60;;;;;;5033938;28;20029;-75
2023/02/27 05:23:56;;;;;;;1.65;0.52;;;1.10;68.00;;;;;;5033830;28;20083;-77
2023/02/27 05:26:46;;;;;;;3.95;0.82;;;1.20;67.20;;;;;;5051790;28;20668;-74
2023/02/27 05:29:22;;;;;;;2.55;0.65;;;1.20;67.50;;;;;;5033637;28;20028;-76
2023/02/27 05:31:53;;;;;;;9.07;2.35;;;1.20;67.80;;;;;;5051742;28;20037;-74
2023/02/27 05:34:40;;;;;;;4.93;1.17;;;1.10;68.30;;;;;;5051770;28;20086;-74
2023/02/27 05:37:24;;;;;;;10.93;3.25;;;1.10;67.80;;;;;;5051558;28;20107;-74
2023/02/27 05:39:52;;;;;;;19.20;6.30;;;1.00;67.40;;;;;;5033513;28;20555;-74
2023/02/27 05:42:26;;;;;;;6.32;2.40;;;1.00;67.40;;;;;;5033590;28;20040;-73
2023/02/27 05:45:01;;;;;;;33.35;9.63;;;1.00;67.00;;;;;;5051410;28;20069;-73
2023/02/27 05:47:30;;;;;;;16.48;7.10;;;1.00;68.70;;;;;;5051479;28;20029;-74
2023/02/27 05:50:14;;;;;;;8.25;2.67;;;1.00;70.50;;;;;;5033438;28;20080;-74
2023/02/27 05:52:41;;;;;;;5.80;1.98;;;0.90;72.10;;;;;;5051060;28;20476;-74
2023/02/27 05:55:21;;;;;;;3.47;1.88;;;0.90;73.80;;;;;;5033156;28;20032;-74
2023/02/27 05:57:55;;;;;;;9.30;3.38;;;0.90;75.50;;;;;;5051784;28;20029;-74
2023/02/27 06:00:27;;;;;;;5.90;1.40;;;0.90;76.60;;;;;;5051229;28;20025;-74
2023/02/27 06:02:53;;;;;;;5.70;2.15;;;0.90;77.90;;;;;;5033061;28;20121;-74
2023/02/27 06:05:18;;;;;;;;;;;0.90;79.10;;;;;;5051396;28;20116;-74
2023/02/27 06:07:44;;;;;;;7.18;2.08;;;0.90;78.80;;;;;;5050883;28;19954;-74
2023/02/27 06:10:12;;;;;;;;;;;0.90;80.20;;;;;;5049900;28;20033;-74
2023/02/27 06:12:38;;;;;;;6.60;2.22;;;0.90;78.90;;;;;;5050771;28;19930;-74
2023/02/27 06:15:04;;;;;;;;;;;1.10;73.70;;;;;;5049899;28;20478;-74
2023/02/27 06:17:29;;;;;;;4.60;1.48;;;1.20;71.00;;;;;;5049603;28;19905;-74
2023/02/27 06:19:55;;;;;;;;;;;1.20;71.60;;;;;;5050969;28;20519;-74
2023/02/27 06:22:20;;;;;;;3.80;1.08;;;1.30;69.70;;;;;;5050313;28;20004;-74
2023/02/27 06:24:46;;;;;;;;;;;1.30;69.40;;;;;;5050870;28;20094;-74
2023/02/27 06:27:11;;;;;;;6.35;1.98;;;1.30;69.10;;;;;;5050523;28;19904;-74
2023/02/27 06:29:37;;;;;;;;;;;1.40;68.90;;;;;;5051177;28;20047;-74
2023/02/27 06:32:03;;;;;;;2.85;0.95;;;1.40;69.20;;;;;;5050321;28;19905;-77
2023/02/27 06:34:28;;;;;;;;;;;1.50;68.20;;;;;;5050862;28;20072;-74
2023/02/27 06:36:54;;;;;;;4.43;0.93;;;1.60;68.00;;;;;;5050235;28;20379;-74
2023/02/27 06:39:19;;;;;;;;;;;1.70;66.90;;;;;;5050724;28;20057;-74
2023/02/27 06:41:45;;;;;;;3.58;1.00;;;1.80;67.30;;;;;;5049394;28;19915;-75
2023/02/27 06:44:10;;;;;;;;;;;1.90;66.10;;;;;;5050674;28;20807;-72
2023/02/27 06:46:36;;;;;;;2.22;0.82;;;1.90;67.00;;;;;;5050217;28;20448;-74
2023/02/27 06:49:02;;;;;;;;;;;2.00;65.70;;;;;;5050808;28;20033;-75
2023/02/27 06:51:27;;;;;;;7.40;2.05;;;2.00;65.70;;;;;;5050346;28;19967;-74
2023/02/27 06:53:53;;;;;;;5.45;2.08;;;1.90;67.30;;;;;;5049929;28;20485;-74
2023/02/27 06:56:19;;;;;;;;;;;1.80;70.10;;;;;;5049073;28;20477;-74
2023/02/27 06:58:44;;;;;;;35.33;18.05;;;1.80;71.00;;;;;;5031778;28;19912;-74
2023/02/27 07:01:11;;;;;;;;;;;1.80;68.30;;;;;;5048730;28;20025;-74
2023/02/27 07:03:36;;;;;;;5.85;1.23;;;1.90;67.40;;;;;;5050099;28;19916;-74
2023/02/27 07:06:02;;;;;;;;;;;2.00;66.30;;;;;;5048979;28;20040;-74
2023/02/27 07:08:28;;;;;;;3.40;1.08;;;2.10;66.20;;;;;;5049928;28;19908;-74
2023/02/27 07:10:53;;;;;;;;;;;2.20;65.40;;;;;;5050303;28;20052;-75
2023/02/27 07:13:19;;;;;;;6.57;1.40;;;2.30;65.20;;;;;;5049877;28;19915;-75
2023/02/27 07:15:44;;;;;;;;;;;2.30;65.40;;;;;;5050325;28;20128;-74
2023/02/27 07:18:10;;;;;;;3.30;1.25;;;2.60;65.30;;;;;;5049841;28;19999;-74
2023/02/27 07:20:36;;;;;;;;;;;2.60;65.90;;;;;;5050093;28;20028;-74
2023/02/27 07:23:01;;;;;;;8.43;2.75;;;2.70;67.70;;;;;;5049717;28;19911;-74
2023/02/27 07:25:27;;;;;;;;;;;2.60;68.40;;;;;;5049867;28;20120;-74
2023/02/27 07:27:53;;;;;;;10.63;3.60;;;2.60;71.30;;;;;;5049386;28;19905;-74
2023/02/27 07:30:18;;;;;;;;;;;2.70;71.30;;;;;;5049945;28;20021;-74
2023/02/27 07:32:45;;;;;;;15.63;3.17;;;3.00;71.00;;;;;;5031035;28;19909;-74
2023/02/27 07:35:10;;;;;;;11.38;4.00;;;3.10;70.50;;;;;;5047816;28;20025;-74
2023/02/27 07:37:36;;;;;;;;;;;3.40;69.00;;;;;;5049571;28;20021;-73
2023/02/27 07:40:04;;;;;;;18.55;3.58;;;3.70;68.20;;;;;;5049416;28;19977;-74
2023/02/27 07:42:30;;;;;;;9.35;3.83;;;4.10;66.30;;;;;;5049106;28;20025;-74
2023/02/27 07:44:55;;;;;;;;;;;4.40;65.20;;;;;;5049251;28;20029;-75
2023/02/27 07:47:21;;;;;;;11.93;3.00;;;4.60;61.80;;;;;;5031237;28;19916;-74
2023/02/27 07:49:46;;;;;;;;;;;4.70;61.20;;;;;;5031477;28;20032;-75
2023/02/27 07:52:12;;;;;;;11.65;3.00;;;4.80;60.90;;;;;;5048685;28;19940;-74
2023/02/27 07:54:37;;;;;;;;;;;4.90;61.70;;;;;;5049048;28;20029;-74
2023/02/27 07:57:04;;;;;;;8.88;2.03;;;4.90;59.80;;;;;;5048692;28;19916;-75
2023/02/27 07:59:30;;;;;;;8.73;2.72;;;5.10;59.40;;;;;;5030799;28;20029;-75
2023/02/27 08:01:55;;;;;;;;;;;5.10;57.30;;;;;;5048152;28;20035;-75
2023/02/27 08:04:21;;;;;;;5.88;2.45;;;5.00;57.20;;;;;;5048844;28;19913;-75
2023/02/27 08:06:46;;;;;;;;;;;5.30;57.40;;;;;;5049096;28;20025;-75
2023/02/27 08:09:12;;;;;;;11.10;5.63;;;5.30;58.90;;;;;;5047564;28;20377;-74
2023/02/27 08:11:38;;;;;;;;;;;5.60;58.40;;;;;;5047753;28;20358;-76
2023/02/27 08:14:04;;;;;;;15.27;2.65;;;5.80;57.40;;;;;;5047485;28;19905;-75
2023/02/27 08:16:30;;;;;;;8.48;2.60;;;6.00;57.70;;;;;;5048380;28;20409;-74
2023/02/27 08:18:55;;;;;;;;;;;6.40;57.70;;;;;;5049119;28;20186;-75
2023/02/27 08:21:21;;;;;;;6.95;2.08;;;6.80;55.90;;;;;;5048622;28;20003;-74
2023/02/27 08:23:47;;;;;;;;;;;7.10;55.40;;;;;;5048877;28;20029;-73
2023/02/27 08:26:13;;;;;;;4.10;1.42;;;7.40;54.80;;;;;;5048472;28;19923;-74
2023/02/27 08:28:38;;;;;;;;;;;7.70;53.70;;;;;;5048648;28;20017;-75
2023/02/27 08:31:05;;;;;;;7.32;2.00;;;7.70;50.20;;;;;;5030303;28;20308;-74
2023/02/27 08:33:32;;;;;;;5.78;2.13;;;7.50;50.60;;;;;;5048519;28;20052;-75
2023/02/27 08:35:58;;;;;;;7.47;2.60;;;7.30;51.50;;;;;;5048158;28;20481;-75
2023/02/27 08:38:23;;;;;;;;;;;7.00;51.70;;;;;;5048499;28;20048;-74
2023/02/27 08:40:52;;;;;;;3.78;1.80;;;7.00;51.60;;;;;;5048335;28;19908;-74
2023/02/27 08:43:21;;;;;;;6.15;2.42;;;7.00;51.70;;;;;;5047939;28;20108;-74
2023/02/27 08:45:48;;;;;;;6.93;2.22;;;7.00;50.50;;;;;;5030371;28;20072;-75
2023/02/27 08:48:16;;;;;;;9.90;1.95;;;7.00;51.60;;;;;;5048442;28;20025;-75
2023/02/27 08:50:42;;;;;;;6.03;2.20;;;7.00;52.50;;;;;;5048059;28;20055;-75
2023/02/27 08:53:08;;;;;;;4.47;1.33;;;7.00;52.90;;;;;;5030672;28;20104;-75
2023/02/27 08:55:34;;;;;;;;;;;7.10;52.80;;;;;;5047353;28;20704;-74
2023/02/27 08:57:59;;;;;;;6.57;2.35;;;7.10;50.40;;;;;;5030331;28;19959;-74
2023/02/27 09:00:25;;;;;;;;;;;6.80;50.40;;;;;;5047201;28;20053;-74
2023/02/27 09:02:52;;;;;;;5.57;1.52;;;7.00;50.40;;;;;;5048124;28;19963;-75
2023/02/27 09:05:17;;;;;;;6.13;2.72;;;6.90;50.00;;;;;;5048018;28;20048;-74
2023/02/27 09:07:43;;;;;;;;;;;7.00;49.90;;;;;;5048588;28;20017;-74
2023/02/27 09:10:09;;;;;;;4.70;1.80;;;7.00;48.60;;;;;;5030261;28;20441;-74
2023/02/27 09:12:36;;;;;;;4.07;1.33;;;6.90;49.10;;;;;;5047765;28;20029;-74
2023/02/27 09:15:01;;;;;;;5.00;1.27;;;7.00;47.90;;;;;;5048108;28;20048;-74
2023/02/27 09:17:27;;;;;;;;;;;7.00;48.70;;;;;;5048470;28;20100;-74
2023/02/27 09:19:53;;;;;;;5.20;2.83;;;6.60;49.70;;;;;;5046638;28;20383;-74
2023/02/27 09:22:18;;;;;;;;;;;6.80;50.40;;;;;;5048515;28;20091;-75
2023/02/27 09:24:44;;;;;;;3.80;1.38;;;7.10;49.60;;;;;;5046408;28;20783;-74
2023/02/27 09:27:10;;;;;;;;;;;7.40;48.40;;;;;;5046908;28;20076;-74
2023/02/27 09:29:35;;;;;;;5.97;2.55;;;7.50;46.90;;;;;;5029648;28;19999;-74
2023/02/27 09:32:01;;;;;;;;;;;7.20;47.50;;;;;;5048353;28;20040;-74
2023/02/27 09:34:27;;;;;;;4.43;1.48;;;7.00;47.50;;;;;;5029912;28;19909;-74
2023/02/27 09:36:52;;;;;;;;;;;6.50;47.80;;;;;;5046956;28;20039;-73
2023/02/27 09:39:18;;;;;;;3.33;0.98;;;6.00;49.10;;;;;;5046302;28;19927;-74
2023/02/27 09:41:49;;;;;;;;;;;5.70;49.70;;;;;;5047933;28;20043;-75
2023/02/27 09:44:35;;;;;;;4.45;1.35;;;5.50;50.70;;;;;;5029773;28;19919;-75
2023/02/27 09:47:04;;;;;;;3.60;1.13;;;5.40;51.20;;;;;;5029671;28;20615;-74
2023/02/27 09:49:40;;;;;;;5.72;1.48;;;5.50;50.30;;;;;;5047770;28;20113;-74
2023/02/27 09:52:06;;;;;;;4.72;1.40;;;5.30;50.70;;;;;;5029858;28;20064;-74
2023/02/27 09:54:33;;;;;;;4.43;1.65;;;5.40;50.80;;;;;;5046063;28;20110;-74
2023/02/27 09:57:04;;;;;;;5.38;1.67;;;5.30;51.20;;;;;;5050151;28;20017;-74
2023/02/27 09:59:46;;;;;;;5.55;1.10;;;5.40;51.60;;;;;;5033026;28;20033;-74
2023/02/27 10:02:31;;;;;;;7.55;1.60;;;5.50;51.70;;;;;;5051321;28;20079;-74
2023/02/27 10:05:22;;;;;;;4.35;1.52;;;5.70;52.70;;;;;;5051095;28;20037;-74
2023/02/27 10:08:15;;;;;;;3.63;1.38;;;5.70;52.90;;;;;;5033430;28;20120;-73
2023/02/27 10:10:47;;;;;;;5.32;1.55;;;5.80;52.70;;;;;;5050715;28;20021;-74
2023/02/27 10:13:33;;;;;;;5.50;1.70;;;6.00;52.20;;;;;;5050957;28;20486;-74
2023/02/27 10:15:59;;;;;;;3.83;1.40;;;6.20;51.00;;;;;;5032862;28;20029;-74
2023/02/27 10:18:33;;;;;;;6.88;1.70;;;6.20;50.80;;;;;;5051008;28;20025;-74
2023/02/27 10:21:09;;;;;;;6.35;1.75;;;6.20;52.80;;;;;;5032890;28;20155;-74
2023/02/27 10:23:42;;;;;;;13.73;4.90;;;6.20;52.10;;;;;;5032929;28;20493;-74
2023/02/27 10:26:18;;;;;;;10.65;4.47;;;6.40;52.60;;;;;;5050635;28;20405;-73
2023/02/27 10:28:44;;;;;;;;;;;6.50;52.00;;;;;;5051274;28;20540;-74
2023/02/27 10:31:32;;;;;;;6.15;2.00;;;6.60;51.10;;;;;;5050603;28;19956;-75
2023/02/27 10:33:59;;;;;;;6.57;2.60;;;6.70;51.40;;;;;;5032772;28;20021;-74
2023/02/27 10:36:26;;;;;;;9.68;4.60;;;6.80;50.20;;;;;;5032631;28;20040;-74
2023/02/27 10:38:57;;;;;;;10.10;4.57;;;6.90;49.40;;;;;;5050325;28;20041;-74
2023/02/27 10:41:23;;;;;;;6.05;2.50;;;7.00;49.80;;;;;;5050185;28;20025;-74
2023/02/27 10:43:59;;;;;;;10.70;2.05;;;7.20;50.50;;;;;;5050487;28;20044;-74
2023/02/27 10:46:28;;;;;;;3.53;1.20;;;7.30;47.60;;;;;;5050274;28;20528;-74
2023/02/27 10:48:54;;;;;;;2.83;1.23;;;6.90;47.50;;;;;;5050227;28;20056;-74
2023/02/27 10:51:26;;;;;;;5.28;1.38;;;6.90;48.10;;;;;;5050235;28;20048;-74
2023/02/27 10:54:13;;;;;;;7.05;2.00;;;6.90;49.00;;;;;;5050200;28;20530;-73
2023/02/27 10:56:39;;;;;;;3.85;1.10;;;6.80;49.10;;;;;;5050011;28;20025;-74
2023/02/27 10:59:06;;;;;;;;;;;7.00;49.30;;;;;;5032609;28;20040;-75
2023/02/27 11:01:54;;;;;;;6.13;1.30;;;7.20;49.40;;;;;;5050223;28;19944;-74
2023/02/27 11:04:39;;;;;;;7.43;3.25;;;7.30;48.00;;;;;;5032078;28;20484;-75
2023/02/27 11:07:08;;;;;;;12.77;7.03;;;6.80;47.70;;;;;;5049379;28;20036;-74
2023/02/27 11:09:35;;;;;;;27.38;14.23;;;6.50;48.90;;;;;;5032239;28;20049;-74
2023/02/27 11:12:11;;;;;;;6.97;2.00;;;6.40;48.50;;;;;;5049805;28;20040;-74
2023/02/27 11:14:51;;;;;;;8.32;2.13;;;6.40;49.40;;;;;;5031757;28;20037;-74
2023/02/27 11:17:35;;;;;;;8.95;2.88;;;6.20;49.80;;;;;;5049850;28;20032;-74
2023/02/27 11:20:05;;;;;;;13.68;6.57;;;6.10;50.80;;;;;;5048498;28;20020;-74
2023/02/27 11:22:31;;;;;;;7.22;3.30;;;6.00;51.10;;;;;;5049617;28;20032;-74
2023/02/27 11:25:17;;;;;;;4.38;1.77;;;6.10;51.70;;;;;;5031574;28;20029;-74
2023/02/27 11:27:45;;;;;;;3.97;1.63;;;6.30;51.00;;;;;;5031639;28;20024;-73
2023/02/27 11:30:31;;;;;;;5.10;1.83;;;6.30;50.00;;;;;;5049482;28;20516;-74
2023/02/27 11:32:59;;;;;;;4.50;2.03;;;6.10;51.30;;;;;;5049008;28;20128;-74
2023/02/27 11:35:33;;;;;;;4.68;1.52;;;6.10;51.10;;;;;;5031282;28;20032;-74
2023/02/27 11:38:24;;;;;;;21.48;13.80;;;6.30;51.00;;;;;;5049164;28;20182;-75
2023/02/27 11:41:04;;;;;;;8.30;2.55;;;6.50;51.40;;;;;;5049077;28;20501;-74
2023/02/27 11:43:40;;;;;;;11.38;6.95;;;6.60;50.90;;;;;;5031290;28;20032;-74
2023/02/27 11:46:11;;;;;;;8.15;3.08;;;6.50;50.40;;;;;;5048958;28;20128;-74
2023/02/27 11:48:46;;;;;;;22.88;14.35;;;6.50;50.70;;;;;;5031004;28;20563;-73
2023/02/27 11:51:36;;;;;;;4.80;2.25;;;6.40;51.10;;;;;;5049044;28;20040;-73
2023/02/27 11:54:35;;;;;;;6.18;2.70;;;6.50;50.40;;;;;;5048800;28;20021;-74
2023/02/27 11:57:16;;;;;;;4.60;1.67;;;6.50;50.20;;;;;;5037992;28;20041;-74
2023/02/27 12:00:06;;;;;;;8.85;2.60;;;6.60;50.80;;;;;;5031190;28;20033;-73
2023/02/27 12:02:45;;;;;;;4.20;1.60;;;6.60;51.10;;;;;;5031181;28;20035;-74
2023/02/27 12:05:38;;;;;;;9.57;2.70;;;6.70;50.20;;;;;;5048804;28;20158;-74
2023/02/27 12:08:15;;;;;;;4.70;1.90;;;6.60;49.00;;;;;;5030808;28;20083;-74
2023/02/27 12:10:53;;;;;;;5.05;1.95;;;6.70;50.30;;;;;;5048633;28;20070;-74
2023/02/27 12:13:26;;;;;;;8.48;3.35;;;6.80;50.60;;;;;;5048793;28;20025;-74
2023/02/27 12:15:51;;;;;;;5.65;2.33;;;6.90;49.60;;;;;;5024965;28;20094;-74
2023/02/27 12:18:20;;;;;;;;;;;7.00;49.40;;;;;;5048476;28;20489;-74
2023/02/27 12:21:10;;;;;;;3.22;1.63;;;6.80;48.90;;;;;;5048488;28;19959;-74
2023/02/27 12:23:45;;;;;;;4.97;1.63;;;6.50;49.10;;;;;;5042432;28;20037;-74
2023/02/27 12:26:31;;;;;;;6.43;1.38;;;6.60;49.60;;;;;;5048456;28;20033;-73
2023/02/27 12:29:19;;;;;;;7.30;2.05;;;6.60;49.70;;;;;;5030768;28;20462;-74
2023/02/27 12:31:54;;;;;;;7.38;2.28;;;6.50;49.00;;;;;;5048398;28;20037;-74
2023/02/27 12:34:36;;;;;;;5.60;1.98;;;6.50;49.10;;;;;;5030717;28;20025;-73
2023/02/27 12:37:14;;;;;;;5.18;1.90;;;6.50;50.10;;;;;;5030386;28;20397;-73
2023/02/27 12:39:42;;;;;;;5.25;1.98;;;6.60;50.30;;;;;;5030387;28;20114;-75
2023/02/27 12:42:26;;;;;;;9.25;3.13;;;6.60;49.50;;;;;;5048211;28;20029;-74
2023/02/27 12:45:10;;;;;;;11.02;3.30;;;6.70;50.80;;;;;;5030231;28;20040;-74
2023/02/27 12:47:56;;;;;;;9.77;3.10;;;6.80;49.50;;;;;;5031096;28;20127;-74
2023/02/27 12:50:24;;;;;;;8.38;2.90;;;6.80;50.80;;;;;;5048339;28;20032;-74
2023/02/27 12:53:18;;;;;;;5.78;2.45;;;6.70;50.70;;;;;;5047702;28;20033;-74
2023/02/27 12:56:12;;;;;;;8.48;3.22;;;6.80;51.10;;;;;;5024174;28;20133;-74
2023/02/27 12:59:06;;;;;;;17.98;8.32;;;6.80;50.60;;;;;;5022862;28;20040;-74
2023/02/27 13:01:35;;;;;;;28.33;12.55;;;6.70;49.80;;;;;;5030480;28;20032;-75
2023/02/27 13:04:42;;;;;;;14.35;6.13;;;6.60;49.60;;;;;;5048186;28;20501;-74
2023/02/27 13:07:12;;;;;;;5.00;2.25;;;6.40;49.60;;;;;;5019414;28;20417;-74
2023/02/27 13:09:47;;;;;;;11.25;5.47;;;6.30;50.20;;;;;;5030129;28;20128;-74
2023/02/27 13:12:21;;;;;;;7.60;2.88;;;6.30;50.50;;;;;;5048028;28;20122;-74
2023/02/27 13:14:50;;;;;;;8.60;2.83;;;6.10;50.10;;;;;;5029883;28;20394;-74
2023/02/27 13:17:21;;;;;;;22.08;11.20;;;6.20;49.80;;;;;;5047909;28;20598;-74
2023/02/27 13:19:53;;;;;;;19.30;7.28;;;6.10;50.20;;;;;;5047676;28;20582;-74
2023/02/27 13:22:47;;;;;;;9.80;4.85;;;6.10;50.30;;;;;;5029824;28;20021;-73
2023/02/27 13:25:14;;;;;;;9.30;3.47;;;6.10;50.80;;;;;;5029699;28;20033;-74
2023/02/27 13:27:54;;;;;;;7.05;3.13;;;6.00;51.10;;;;;;5047760;28;20052;-73
2023/02/27 13:30:34;;;;;;;7.30;2.80;;;6.10;50.20;;;;;;5049439;28;20490;-73
2023/02/27 13:33:22;;;;;;;20.35;9.52;;;6.00;50.30;;;;;;5051687;28;20110;-74
2023/02/27 13:36:16;;;;;;;21.38;9.80;;;5.90;50.60;;;;;;5051580;28;20128;-74
2023/02/27 13:38:54;;;;;;;325.15;114.75;;;5.90;51.60;;;;;;5033410;28;20049;-73